Time;durP1;ratioP1;P1;durP2;ratioP2;P2;SDS_P1;SDS_P2;PMS_P1;PMS_P2;Temp;Humidity;BMP_temperature;BMP_pressure;BME280_temperature;BME280_humidity;BME280_pressure;Samples;Min_cycle;Max_cycle;Signal;HPM_P1;HPM_P2
2022/03/13 00:02:17;;;;;;;;;;;4.80;67.70;;;;;;5056190;28;20328;-74
2022/03/13 00:04:49;;;;;;;;;;;4.80;67.90;;;;;;5055767;28;19924;-76
2022/03/13 00:07:21;;;;;;;;;;;4.80;68.00;;;;;;5057690;28;19932;-74
2022/03/13 00:09:51;;;;;;;;;;;4.70;68.20;;;;;;5059642;28;19968;-73
2022/03/13 00:12:29;;;;;;;;;;;4.80;68.00;;;;;;5062155;28;20384;-75
2022/03/13 00:14:57;;;;;;;;;;;4.70;68.50;;;;;;5062980;28;20404;-75
2022/03/13 00:17:29;;;;;;;;;;;4.70;68.80;;;;;;5056508;28;20384;-75
2022/03/13 00:20:00;;;;;;;;;;;4.70;69.70;;;;;;5058211;28;19948;-75
2022/03/13 00:22:28;;;;;;;;;;;4.70;69.00;;;;;;5055028;28;19929;-75
2022/03/13 00:24:55;;;;;;;;;;;4.70;69.50;;;;;;5056877;28;19932;-76
2022/03/13 00:27:22;;;;;;;;;;;4.70;69.50;;;;;;5074811;28;19991;-75
2022/03/13 00:29:49;;;;;;;;;;;4.60;69.40;;;;;;5061059;28;19954;-75
2022/03/13 00:32:16;;;;;;;;;;;4.60;70.00;;;;;;5053682;28;19951;-76
2022/03/13 00:34:44;;;;;;;;;;;4.60;69.80;;;;;;5059212;28;20586;-75
2022/03/13 00:37:11;;;;;;;;;;;4.60;70.40;;;;;;5069038;28;19928;-75
2022/03/13 00:39:41;;;;;;;;;;;4.50;70.30;;;;;;5059192;28;19950;-76
2022/03/13 00:42:08;;;;;;;;;;;4.50;70.20;;;;;;5056400;28;20335;-75
2022/03/13 00:44:34;;;;;;;;;;;4.50;69.80;;;;;;5062885;28;19970;-75
2022/03/13 00:47:01;;;;;;;;;;;4.50;69.70;;;;;;5072707;28;19929;-75
2022/03/13 00:49:28;;;;;;;;;;;4.50;69.60;;;;;;5063251;28;19989;-75
2022/03/13 00:51:56;;;;;;;;;;;4.50;69.60;;;;;;5065793;28;20023;-75
2022/03/13 00:54:23;;;;;;;;;;;4.50;69.90;;;;;;5057214;28;20396;-75
2022/03/13 00:56:50;;;;;;;;;;;4.50;69.70;;;;;;5068141;28;19975;-75
2022/03/13 00:59:17;;;;;;;;;;;4.50;69.60;;;;;;5068752;28;20336;-76
2022/03/13 01:01:44;;;;;;;;;;;4.50;69.90;;;;;;5068096;28;20390;-76
2022/03/13 01:04:12;;;;;;;;;;;4.50;70.10;;;;;;5061682;28;19925;-74
2022/03/13 01:06:41;;;;;;;;;;;4.50;70.60;;;;;;5058706;28;19929;-76
2022/03/13 01:09:07;;;;;;;;;;;4.50;70.60;;;;;;5072357;28;19924;-75
2022/03/13 01:11:34;;;;;;;;;;;4.50;70.60;;;;;;5065788;28;20354;-76
2022/03/13 01:14:01;;;;;;;;;;;4.50;70.70;;;;;;5063598;28;19970;-76
2022/03/13 01:16:33;;;;;;;;;;;4.50;70.60;;;;;;5069718;28;20414;-75
2022/03/13 01:19:00;;;;;;;;;;;4.50;70.30;;;;;;5062717;28;19935;-75
2022/03/13 01:21:27;;;;;;;;;;;4.40;70.40;;;;;;5066668;28;19925;-76
2022/03/13 01:23:57;;;;;;;;;;;4.40;70.40;;;;;;5062726;28;20384;-74
2022/03/13 01:26:24;;;;;;;;;;;4.40;70.30;;;;;;5066959;28;20011;-74
2022/03/13 01:28:56;;;;;;;;;;;4.40;71.00;;;;;;5052572;28;19929;-75
2022/03/13 01:31:24;;;;;;;;;;;4.40;71.50;;;;;;5063527;28;20407;-75
2022/03/13 01:33:51;;;;;;;;;;;4.40;71.30;;;;;;5060044;28;19989;-75
2022/03/13 01:36:18;;;;;;;;;;;4.30;71.80;;;;;;5054300;28;19928;-75
2022/03/13 01:38:45;;;;;;;;;;;4.40;71.70;;;;;;5057691;28;19955;-74
2022/03/13 01:41:12;;;;;;;;;;;4.30;71.20;;;;;;5071265;28;19932;-76
2022/03/13 01:43:39;;;;;;;;;;;4.30;71.00;;;;;;5049347;28;19925;-75
2022/03/13 01:46:11;;;;;;;;;;;4.30;71.10;;;;;;5069645;28;19935;-75
2022/03/13 01:48:39;;;;;;;;;;;4.30;71.20;;;;;;5056755;28;19925;-75
2022/03/13 01:51:06;;;;;;;;;;;4.30;71.30;;;;;;5066617;28;19937;-75
2022/03/13 01:53:33;;;;;;;;;;;4.30;72.00;;;;;;5064819;28;19925;-76
2022/03/13 01:56:00;;;;;;;;;;;4.20;72.10;;;;;;5050214;28;19991;-75
2022/03/13 01:58:26;;;;;;;;;;;4.20;72.20;;;;;;5065932;28;19975;-75
2022/03/13 02:00:53;;;;;;;;;;;4.20;72.10;;;;;;5056329;28;19972;-75
2022/03/13 02:03:22;;;;;;;;;;;4.20;72.20;;;;;;5069700;28;19935;-75
2022/03/13 02:05:49;;;;;;;;;;;4.20;71.90;;;;;;5070984;28;19925;-73
2022/03/13 02:08:20;;;;;;;;;;;4.20;71.80;;;;;;5069911;28;20027;-76
2022/03/13 02:10:46;;;;;;;;;;;4.20;72.00;;;;;;5057388;28;20461;-76
2022/03/13 02:13:14;;;;;;;;;;;4.20;71.90;;;;;;5064050;28;20343;-75
2022/03/13 02:15:40;;;;;;;;;;;4.20;72.00;;;;;;5064425;28;19975;-75
2022/03/13 02:18:07;;;;;;;;;;;4.20;71.80;;;;;;5049825;28;19925;-76
2022/03/13 02:20:41;;;;;;;;;;;4.20;71.70;;;;;;5050639;28;19952;-75
2022/03/13 02:23:25;;;;;;;;;;;4.20;71.90;;;;;;5049848;28;20368;-74
2022/03/13 02:25:53;;;;;;;;;;;4.20;71.90;;;;;;5050940;28;19998;-74
2022/03/13 02:28:21;;;;;;;;;;;4.20;72.30;;;;;;5067476;28;19924;-75
2022/03/13 02:30:48;;;;;;;;;;;4.20;72.30;;;;;;5069673;28;19964;-75
2022/03/13 02:33:19;;;;;;;;;;;4.10;72.50;;;;;;5067535;28;19931;-75
2022/03/13 02:35:54;;;;;;;;;;;4.10;73.10;;;;;;5069018;28;19997;-75
2022/03/13 02:38:21;;;;;;;;;;;4.10;71.90;;;;;;5055412;28;20301;-75
2022/03/13 02:40:48;;;;;;;;;;;4.10;72.10;;;;;;5056539;28;20011;-76
2022/03/13 02:43:15;;;;;;;;;;;4.10;71.80;;;;;;5070995;28;20014;-75
2022/03/13 02:45:42;;;;;;;;;;;4.10;71.90;;;;;;5065498;28;20019;-74
2022/03/13 02:48:09;;;;;;;;;;;4.10;71.90;;;;;;5066614;28;19963;-76
2022/03/13 02:50:36;;;;;;;;;;;4.10;72.10;;;;;;5064669;28;19971;-74
2022/03/13 02:53:03;;;;;;;;;;;4.10;71.80;;;;;;5069320;28;19932;-75
2022/03/13 02:55:30;;;;;;;;;;;4.10;71.90;;;;;;5066938;28;19967;-73
2022/03/13 02:57:57;;;;;;;;;;;4.10;72.00;;;;;;5066125;28;20407;-76
2022/03/13 03:00:44;;;;;;;;;;;4.10;72.30;;;;;;5049939;28;19965;-76
2022/03/13 03:03:12;;;;;;;;;;;4.10;72.70;;;;;;5068802;28;19956;-75
2022/03/13 03:05:39;;;;;;;;;;;4.10;73.10;;;;;;5062069;28;20015;-74
2022/03/13 03:08:07;;;;;;;;;;;4.00;72.90;;;;;;5057124;28;19968;-75
2022/03/13 03:10:35;;;;;;;;;;;4.00;73.10;;;;;;5069569;28;20443;-75
2022/03/13 03:13:02;;;;;;;;;;;4.00;74.20;;;;;;5062290;28;19971;-76
2022/03/13 03:15:29;;;;;;;;;;;3.90;76.40;;;;;;5063800;28;19960;-75
2022/03/13 03:17:56;;;;;;;;;;;3.90;74.50;;;;;;5064834;28;19928;-74
2022/03/13 03:20:23;;;;;;;;;;;3.90;75.00;;;;;;5069063;28;20273;-74
2022/03/13 03:22:51;;;;;;;;;;;3.90;74.60;;;;;;5068669;28;20396;-75
2022/03/13 03:25:20;;;;;;;;;;;3.90;74.40;;;;;;5070059;28;19955;-75
2022/03/13 03:27:47;;;;;;;;;;;3.90;74.70;;;;;;5071519;28;19955;-74
2022/03/13 03:30:14;;;;;;;;;;;3.80;74.80;;;;;;5061377;28;19960;-75
2022/03/13 03:32:40;;;;;;;;;;;3.80;74.80;;;;;;5072154;28;19946;-75
2022/03/13 03:35:07;;;;;;;;;;;3.80;75.00;;;;;;5073894;28;19951;-75
2022/03/13 03:37:34;;;;;;;;;;;3.80;75.80;;;;;;5073777;28;19925;-75
2022/03/13 03:40:01;;;;;;;;;;;3.80;75.60;;;;;;5072282;28;19977;-76
2022/03/13 03:42:28;;;;;;;;;;;3.80;75.00;;;;;;5074332;28;19967;-75
2022/03/13 03:44:54;;;;;;;;;;;3.80;74.90;;;;;;5063147;28;19964;-76
2022/03/13 03:47:21;;;;;;;;;;;3.80;74.70;;;;;;5064754;28;19932;-75
2022/03/13 03:49:48;;;;;;;;;;;3.80;74.40;;;;;;5072100;28;19963;-74
2022/03/13 03:52:15;;;;;;;;;;;3.80;74.20;;;;;;5071672;28;19951;-73
2022/03/13 03:54:41;;;;;;;;;;;3.80;74.50;;;;;;5069343;28;19948;-75
2022/03/13 03:57:08;;;;;;;;;;;3.80;74.20;;;;;;5063540;28;19964;-74
2022/03/13 03:59:35;;;;;;;;;;;3.80;74.10;;;;;;5061172;28;19928;-75
2022/03/13 04:02:02;;;;;;;;;;;3.80;73.90;;;;;;5072224;28;19924;-74
2022/03/13 04:04:28;;;;;;;;;;;3.80;73.80;;;;;;5053862;28;20385;-74
2022/03/13 04:06:55;;;;;;;;;;;3.80;73.50;;;;;;5053312;28;20047;-75
2022/03/13 04:09:22;;;;;;;;;;;3.80;75.30;;;;;;5055982;28;20027;-74
2022/03/13 04:11:49;;;;;;;;;;;3.80;75.40;;;;;;5073850;28;19924;-74
2022/03/13 04:14:17;;;;;;;;;;;3.80;75.10;;;;;;5056803;28;20003;-75
2022/03/13 04:16:44;;;;;;;;;;;3.80;75.20;;;;;;5073801;28;19929;-75
2022/03/13 04:19:11;;;;;;;;;;;3.80;75.10;;;;;;5071288;28;21400;-75
2022/03/13 04:21:40;;;;;;;;;;;3.80;75.20;;;;;;5072707;28;19963;-76
2022/03/13 04:24:07;;;;;;;;;;;3.80;75.50;;;;;;5071974;28;20299;-74
2022/03/13 04:26:34;;;;;;;;;;;3.80;75.20;;;;;;5073957;28;19928;-76
2022/03/13 04:29:01;;;;;;;;;;;3.80;74.80;;;;;;5056808;28;20351;-76
2022/03/13 04:31:27;;;;;;;;;;;3.80;74.70;;;;;;5064411;28;19980;-75
2022/03/13 04:33:54;;;;;;;;;;;3.80;74.90;;;;;;5066396;28;20479;-76
2022/03/13 04:36:21;;;;;;;;;;;3.80;75.70;;;;;;5061213;28;20028;-76
2022/03/13 04:38:48;;;;;;;;;;;3.80;75.80;;;;;;5072316;28;19959;-75
2022/03/13 04:41:15;;;;;;;;;;;3.80;74.90;;;;;;5070864;28;20031;-75
2022/03/13 04:43:43;;;;;;;;;;;3.80;74.70;;;;;;5072023;28;20003;-74
2022/03/13 04:46:13;;;;;;;;;;;3.80;74.60;;;;;;5058380;28;20392;-74
2022/03/13 04:48:40;;;;;;;;;;;3.80;74.70;;;;;;5068725;28;19936;-76
2022/03/13 04:51:06;;;;;;;;;;;3.80;74.50;;;;;;5060767;28;19982;-75
2022/03/13 04:53:33;;;;;;;;;;;3.80;74.30;;;;;;5065539;28;20445;-75
2022/03/13 04:56:00;;;;;;;;;;;3.90;74.20;;;;;;5057245;28;19929;-75
2022/03/13 04:58:27;;;;;;;;;;;3.90;74.10;;;;;;5068695;28;19979;-75
2022/03/13 05:00:53;;;;;;;;;;;3.90;73.90;;;;;;5069234;28;20419;-76
2022/03/13 05:03:21;;;;;;;;;;;3.90;74.10;;;;;;5072877;28;19968;-75
2022/03/13 05:05:48;;;;;;;;;;;3.80;74.70;;;;;;5068247;28;20020;-75
2022/03/13 05:08:15;;;;;;;;;;;3.80;76.10;;;;;;5059908;28;19928;-76
2022/03/13 05:10:43;;;;;;;;;;;3.70;75.90;;;;;;5068974;28;19925;-76
2022/03/13 05:13:11;;;;;;;;;;;3.70;75.50;;;;;;5070839;28;19935;-74
2022/03/13 05:15:39;;;;;;;;;;;3.80;75.60;;;;;;5059829;28;19932;-74
2022/03/13 05:18:06;;;;;;;;;;;3.70;75.60;;;;;;5065772;28;19964;-75
2022/03/13 05:20:37;;;;;;;;;;;3.70;75.60;;;;;;5063785;28;20277;-74
2022/03/13 05:23:05;;;;;;;;;;;3.70;75.40;;;;;;5071463;28;19959;-75
2022/03/13 05:25:32;;;;;;;;;;;3.70;75.70;;;;;;5057539;28;20464;-76
2022/03/13 05:27:59;;;;;;;;;;;3.70;75.90;;;;;;5062848;28;19929;-74
2022/03/13 05:30:26;;;;;;;;;;;3.70;75.80;;;;;;5064706;28;19929;-76
2022/03/13 05:32:53;;;;;;;;;;;3.70;75.50;;;;;;5052048;28;20012;-73
2022/03/13 05:35:20;;;;;;;;;;;3.80;76.00;;;;;;5051063;28;20316;-75
2022/03/13 05:37:47;;;;;;;;;;;3.70;75.60;;;;;;5057204;28;20353;-75
2022/03/13 05:40:15;;;;;;;;;;;3.80;75.60;;;;;;5061952;28;20020;-75
2022/03/13 05:42:46;;;;;;;;;;;3.80;75.60;;;;;;5057510;28;19975;-74
2022/03/13 05:45:15;;;;;;;;;;;3.80;76.00;;;;;;5070881;28;19955;-74
2022/03/13 05:47:49;;;;;;;;;;;3.80;76.10;;;;;;5069581;28;20007;-75
2022/03/13 05:50:16;;;;;;;;;;;3.70;76.50;;;;;;5066199;28;19925;-73
2022/03/13 05:52:45;;;;;;;;;;;3.70;76.30;;;;;;5070622;28;19924;-75
2022/03/13 05:55:12;;;;;;;;;;;3.70;76.20;;;;;;5054832;28;20000;-75
2022/03/13 05:57:39;;;;;;;;;;;3.70;75.70;;;;;;5057230;28;20398;-74
2022/03/13 06:00:07;;;;;;;;;;;3.70;76.20;;;;;;5057531;28;19956;-74
2022/03/13 06:02:38;;;;;;;;;;;3.70;76.80;;;;;;5067174;28;20025;-75
2022/03/13 06:05:05;;;;;;;;;;;3.70;78.10;;;;;;5065922;28;20027;-75
2022/03/13 06:07:32;;;;;;;;;;;3.60;77.20;;;;;;5070834;28;19963;-75
2022/03/13 06:10:02;;;;;;;;;;;3.70;77.30;;;;;;5069570;28;19964;-76
2022/03/13 06:12:30;;;;;;;;;;;3.70;76.80;;;;;;5070424;28;20386;-76
2022/03/13 06:14:57;;;;;;;;;;;3.70;76.70;;;;;;5070397;28;20458;-75
2022/03/13 06:17:24;;;;;;;;;;;3.70;76.40;;;;;;5055014;28;19956;-74
2022/03/13 06:19:51;;;;;;;;;;;3.70;76.10;;;;;;5062009;28;20345;-75
2022/03/13 06:22:19;;;;;;;;;;;3.70;76.00;;;;;;5064844;28;20351;-75
2022/03/13 06:24:45;;;;;;;;;;;3.70;76.20;;;;;;5070053;28;19924;-74
2022/03/13 06:27:12;;;;;;;;;;;3.70;76.20;;;;;;5069172;28;19931;-75
2022/03/13 06:29:40;;;;;;;;;;;3.70;76.20;;;;;;5069183;28;19929;-75
2022/03/13 06:32:07;;;;;;;;;;;3.70;76.20;;;;;;5066012;28;20339;-76
2022/03/13 06:34:34;;;;;;;;;;;3.70;75.80;;;;;;5064518;28;19960;-75
2022/03/13 06:37:01;;;;;;;;;;;3.70;75.50;;;;;;5059637;28;19978;-76
2022/03/13 06:39:27;;;;;;;;;;;3.80;76.10;;;;;;5063804;28;19957;-76
2022/03/13 06:41:54;;;;;;;;;;;3.80;75.50;;;;;;5066431;28;20483;-75
2022/03/13 06:44:21;;;;;;;;;;;3.80;75.30;;;;;;5069372;28;19932;-76
2022/03/13 06:46:48;;;;;;;;;;;3.80;75.00;;;;;;5051616;28;19929;-76
2022/03/13 06:49:15;;;;;;;;;;;3.90;74.60;;;;;;5061640;28;19932;-75
2022/03/13 06:51:41;;;;;;;;;;;3.90;74.30;;;;;;5058956;28;20376;-76
2022/03/13 06:54:11;;;;;;;;;;;3.90;71.90;;;;;;5066021;28;19925;-74
2022/03/13 06:56:39;;;;;;;;;;;4.00;71.50;;;;;;5050262;28;19982;-75
2022/03/13 06:59:06;;;;;;;;;;;4.00;71.10;;;;;;5053109;28;20461;-76
2022/03/13 07:01:34;;;;;;;;;;;4.10;70.50;;;;;;5069755;28;19928;-75
2022/03/13 07:04:01;;;;;;;;;;;4.10;70.40;;;;;;5069158;28;19928;-75
2022/03/13 07:06:27;;;;;;;;;;;4.10;70.30;;;;;;5061734;28;20475;-75
2022/03/13 07:08:55;;;;;;;;;;;4.10;69.60;;;;;;5073590;28;20437;-74
2022/03/13 07:11:22;;;;;;;;;;;4.20;69.40;;;;;;5072742;28;20012;-76
2022/03/13 07:13:49;;;;;;;;;;;4.20;69.20;;;;;;5073750;28;19924;-75
2022/03/13 07:16:16;;;;;;;;;;;4.20;69.20;;;;;;5072700;28;19925;-75
2022/03/13 07:18:43;;;;;;;;;;;4.30;68.90;;;;;;5071802;28;19941;-74
2022/03/13 07:21:10;;;;;;;;;;;4.30;67.80;;;;;;5063050;28;19929;-75
2022/03/13 07:23:37;;;;;;;;;;;4.30;68.00;;;;;;5060354;28;19993;-75
2022/03/13 07:26:04;;;;;;;;;;;4.40;67.90;;;;;;5060724;28;19924;-75
2022/03/13 07:28:31;;;;;;;;;;;4.40;66.80;;;;;;5062807;28;20400;-75
2022/03/13 07:30:58;;;;;;;;;;;4.40;66.20;;;;;;5068293;28;19924;-76
2022/03/13 07:33:25;;;;;;;;;;;4.40;66.40;;;;;;5064127;28;20011;-74
2022/03/13 07:35:55;;;;;;;;;;;4.50;66.30;;;;;;5071610;28;19968;-74
2022/03/13 07:38:22;;;;;;;;;;;4.60;66.40;;;;;;5053970;28;19929;-75
2022/03/13 07:40:49;;;;;;;;;;;4.60;65.90;;;;;;5055812;28;19925;-74
2022/03/13 07:43:17;;;;;;;;;;;4.60;66.10;;;;;;5074253;28;19925;-73
2022/03/13 07:45:43;;;;;;;;;;;4.70;66.00;;;;;;5074482;28;19928;-75
2022/03/13 07:48:10;;;;;;;;;;;4.80;65.80;;;;;;5054992;28;19928;-76
2022/03/13 07:50:37;;;;;;;;;;;4.80;64.90;;;;;;5068167;28;19925;-74
2022/03/13 07:53:04;;;;;;;;;;;4.90;64.80;;;;;;5063834;28;19963;-75
2022/03/13 07:55:31;;;;;;;;;;;4.90;64.20;;;;;;5072776;28;19925;-75
2022/03/13 07:57:57;;;;;;;;;;;4.90;64.10;;;;;;5073153;28;19974;-76
2022/03/13 08:00:24;;;;;;;;;;;5.00;64.60;;;;;;5059718;28;19924;-73
2022/03/13 08:02:53;;;;;;;;;;;5.10;63.70;;;;;;5057994;28;19974;-75
2022/03/13 08:05:24;;;;;;;;;;;5.00;64.00;;;;;;5071943;28;20004;-76
2022/03/13 08:07:56;;;;;;;;;;;5.10;64.30;;;;;;5069957;28;19925;-76
2022/03/13 08:10:24;;;;;;;;;;;5.10;63.90;;;;;;5053223;28;19924;-75
2022/03/13 08:12:53;;;;;;;;;;;5.20;63.50;;;;;;5061901;28;20454;-76
2022/03/13 08:15:20;;;;;;;;;;;5.20;63.70;;;;;;5053007;28;19968;-74
2022/03/13 08:17:47;;;;;;;;;;;5.30;64.00;;;;;;5066198;28;19925;-75
2022/03/13 08:20:14;;;;;;;;;;;5.30;63.70;;;;;;5051997;28;20400;-73
2022/03/13 08:22:40;;;;;;;;;;;5.30;63.80;;;;;;5064942;28;20015;-76
2022/03/13 08:25:07;;;;;;;;;;;5.40;63.90;;;;;;5064580;28;19978;-76
2022/03/13 08:27:34;;;;;;;;;;;5.40;63.40;;;;;;5071381;28;19924;-76
2022/03/13 08:30:02;;;;;;;;;;;5.40;63.30;;;;;;5072853;28;19932;-75
2022/03/13 08:32:29;;;;;;;;;;;5.40;63.30;;;;;;5058988;28;20354;-76
2022/03/13 08:34:56;;;;;;;;;;;5.40;63.20;;;;;;5073142;28;19924;-75
2022/03/13 08:37:23;;;;;;;;;;;5.50;63.00;;;;;;5070904;28;19960;-76
2022/03/13 08:39:50;;;;;;;;;;;5.50;62.50;;;;;;5074210;28;19942;-76
2022/03/13 08:42:17;;;;;;;;;;;5.60;62.70;;;;;;5063121;28;19970;-75
2022/03/13 08:44:44;;;;;;;;;;;5.60;62.60;;;;;;5072196;28;19956;-75
2022/03/13 08:47:11;;;;;;;;;;;5.70;62.70;;;;;;5071603;28;20346;-76
2022/03/13 08:49:37;;;;;;;;;;;5.70;62.40;;;;;;5072282;28;19925;-76
2022/03/13 08:52:04;;;;;;;;;;;5.70;61.50;;;;;;5057529;28;20278;-75
2022/03/13 08:54:34;;;;;;;;;;;5.70;61.80;;;;;;5051206;28;20016;-76
2022/03/13 08:57:02;;;;;;;;;;;5.80;61.80;;;;;;5062597;28;19970;-75
2022/03/13 08:59:29;;;;;;;;;;;5.90;62.10;;;;;;5061191;28;20270;-76
2022/03/13 09:01:55;;;;;;;;;;;5.90;61.90;;;;;;5057924;28;20451;-76
2022/03/13 09:04:22;;;;;;;;;;;5.90;61.50;;;;;;5064526;28;19975;-76
2022/03/13 09:06:49;;;;;;;;;;;5.90;61.40;;;;;;5072695;28;19956;-75
2022/03/13 09:09:18;;;;;;;;;;;6.00;61.40;;;;;;5070429;28;20350;-76
2022/03/13 09:11:47;;;;;;;;;;;6.00;61.30;;;;;;5064295;28;19932;-76
2022/03/13 09:14:13;;;;;;;;;;;6.10;61.60;;;;;;5057041;28;19933;-75
2022/03/13 09:16:41;;;;;;;;;;;6.10;61.30;;;;;;5063132;28;19951;-76
2022/03/13 09:19:09;;;;;;;;;;;6.10;61.30;;;;;;5054709;28;19929;-76
2022/03/13 09:21:38;;;;;;;;;;;6.20;61.10;;;;;;5057651;28;20388;-76
2022/03/13 09:24:07;;;;;;;;;;;6.10;61.10;;;;;;5058159;28;19943;-78
2022/03/13 09:26:39;;;;;;;;;;;6.10;61.00;;;;;;5054032;28;20001;-76
2022/03/13 09:29:07;;;;;;;;;;;6.20;61.30;;;;;;5056320;28;19929;-75
2022/03/13 09:31:34;;;;;;;;;;;6.20;61.30;;;;;;5067723;28;19974;-74
2022/03/13 09:34:01;;;;;;;;;;;6.20;60.80;;;;;;5062132;28;20354;-76
2022/03/13 09:36:28;;;;;;;;;;;6.20;60.50;;;;;;5057912;28;19925;-74
2022/03/13 09:38:54;;;;;;;;;;;6.30;60.90;;;;;;5057868;28;19932;-77
2022/03/13 09:41:21;;;;;;;;;;;6.30;59.60;;;;;;5055295;28;19925;-77
2022/03/13 09:43:50;;;;;;;;;;;6.30;60.00;;;;;;5064285;28;20363;-77
2022/03/13 09:46:19;;;;;;;;;;;6.40;59.70;;;;;;5058713;28;19990;-75
2022/03/13 09:48:48;;;;;;;;;;;6.50;59.50;;;;;;5067151;28;19929;-77
2022/03/13 09:51:15;;;;;;;;;;;6.60;59.40;;;;;;5065459;28;19933;-75
2022/03/13 09:53:42;;;;;;;;;;;6.70;58.90;;;;;;5068102;28;19993;-75
2022/03/13 09:56:08;;;;;;;;;;;6.90;58.40;;;;;;5064675;28;19947;-74
2022/03/13 09:58:35;;;;;;;;;;;7.00;58.40;;;;;;5062425;28;19932;-75
2022/03/13 10:01:02;;;;;;;;;;;7.10;58.30;;;;;;5069938;28;19935;-75
2022/03/13 10:03:29;;;;;;;;;;;7.10;56.90;;;;;;5067314;28;20023;-76
2022/03/13 10:05:58;;;;;;;;;;;7.30;57.30;;;;;;5057454;28;20404;-75
2022/03/13 10:08:29;;;;;;;;;;;7.40;57.60;;;;;;5065919;28;19955;-74
2022/03/13 10:10:56;;;;;;;;;;;7.50;56.50;;;;;;5070672;28;19929;-77
2022/03/13 10:13:33;;;;;;;;;;;7.60;56.50;;;;;;5066130;28;19930;-75
2022/03/13 10:16:00;;;;;;;;;;;7.70;56.30;;;;;;5066377;28;19978;-77
2022/03/13 10:18:28;;;;;;;;;;;7.70;55.60;;;;;;5072394;28;19970;-77
2022/03/13 10:20:55;;;;;;;;;;;7.80;55.40;;;;;;5073049;28;19935;-74
2022/03/13 10:23:22;;;;;;;;;;;7.80;55.30;;;;;;5073437;28;19982;-75
2022/03/13 10:25:50;;;;;;;;;;;7.80;54.60;;;;;;5072506;28;19925;-77
2022/03/13 10:28:24;;;;;;;;;;;7.80;55.20;;;;;;5067701;28;19929;-76
2022/03/13 10:31:00;;;;;;;;;;;7.80;54.30;;;;;;5073691;28;20343;-77
2022/03/13 10:33:46;;;;;;;;;;;7.80;54.70;;;;;;5060323;28;19982;-75
2022/03/13 10:36:21;;;;;;;;;;;7.90;54.70;;;;;;5054109;28;19925;-75
2022/03/13 10:38:49;;;;;;;;;;;8.00;53.70;;;;;;5063100;28;19925;-77
2022/03/13 10:41:16;;;;;;;;;;;8.00;53.80;;;;;;5064727;28;19925;-75
2022/03/13 10:43:55;;;;;;;;;;;8.00;53.50;;;;;;5055148;28;19925;-75
2022/03/13 10:46:26;;;;;;;;;;;7.90;53.50;;;;;;5063110;28;19929;-75
2022/03/13 10:48:54;;;;;;;;;;;7.80;53.60;;;;;;5062970;28;20027;-77
2022/03/13 10:51:33;;;;;;;;;;;7.90;54.40;;;;;;5061120;28;19946;-75
2022/03/13 10:54:02;;;;;;;;;;;8.00;54.10;;;;;;5067024;28;19924;-78
2022/03/13 10:56:29;;;;;;;;;;;8.10;53.60;;;;;;5058004;28;19929;-75
2022/03/13 10:58:56;;;;;;;;;;;8.10;52.50;;;;;;5060913;28;20437;-77
2022/03/13 11:01:25;;;;;;;;;;;8.10;51.80;;;;;;5055941;28;19935;-77
2022/03/13 11:03:52;;;;;;;;;;;8.10;51.70;;;;;;5058250;28;20011;-76
2022/03/13 11:06:20;;;;;;;;;;;8.20;52.80;;;;;;5065246;28;19936;-74
2022/03/13 11:08:54;;;;;;;;;;;8.30;52.60;;;;;;5060576;28;20299;-75
2022/03/13 11:11:21;;;;;;;;;;;8.30;51.80;;;;;;5063348;28;20281;-77
2022/03/13 11:13:52;;;;;;;;;;;8.30;51.60;;;;;;5067042;28;19929;-77
2022/03/13 11:16:23;;;;;;;;;;;8.40;52.50;;;;;;5073892;28;20510;-74
2022/03/13 11:18:53;;;;;;;;;;;8.50;50.80;;;;;;5062280;28;19979;-75
2022/03/13 11:21:20;;;;;;;;;;;8.50;48.70;;;;;;5062784;28;20339;-75
2022/03/13 11:23:47;;;;;;;;;;;8.50;49.70;;;;;;5064521;28;19931;-77
2022/03/13 11:26:15;;;;;;;;;;;8.40;49.90;;;;;;5058033;28;19928;-76
2022/03/13 11:28:46;;;;;;;;;;;8.50;50.60;;;;;;5065388;28;20335;-76
2022/03/13 11:31:37;;;;;;;;;;;8.70;50.90;;;;;;5062629;28;20019;-77
2022/03/13 11:34:14;;;;;;;;;;;8.70;50.90;;;;;;5064980;28;19929;-77
2022/03/13 11:36:42;;;;;;;;;;;8.70;50.20;;;;;;5063443;28;19925;-76
2022/03/13 11:39:09;;;;;;;;;;;8.60;50.80;;;;;;5074767;28;19932;-75
2022/03/13 11:41:41;;;;;;;;;;;8.60;50.80;;;;;;5059839;28;19925;-76
2022/03/13 11:44:23;;;;;;;;;;;8.50;50.50;;;;;;5072521;28;19928;-75
2022/03/13 11:46:51;;;;;;;;;;;8.60;50.00;;;;;;5066856;28;19928;-75
2022/03/13 11:49:33;;;;;;;;;;;8.50;50.30;;;;;;5068896;28;19924;-76
2022/03/13 11:52:09;;;;;;;;;;;8.60;50.80;;;;;;5056240;28;19983;-74
2022/03/13 11:54:57;;;;;;;;;;;8.70;51.00;;;;;;5073403;28;19974;-75
2022/03/13 11:57:50;;;;;;;;;;;8.80;50.80;;;;;;5069240;28;19939;-75
2022/03/13 12:00:17;;;;;;;;;;;8.70;50.60;;;;;;5059611;28;19931;-75
2022/03/13 12:02:45;;;;;;;;;;;8.80;50.20;;;;;;5071424;28;19954;-76
2022/03/13 12:05:29;;;;;;;;;;;8.70;50.30;;;;;;5061020;28;19924;-77
2022/03/13 12:08:06;;;;;;;;;;;8.80;50.20;;;;;;5060037;28;19925;-75
2022/03/13 12:10:42;;;;;;;;;;;8.90;50.40;;;;;;5058817;28;20483;-77
2022/03/13 12:13:10;;;;;;;;;;;8.90;50.10;;;;;;5057877;28;19933;-77
2022/03/13 12:15:39;;;;;;;;;;;9.00;50.00;;;;;;5068728;28;19947;-74
2022/03/13 12:18:22;;;;;;;;;;;8.90;49.00;;;;;;5060908;28;19955;-77
2022/03/13 12:20:49;;;;;;;;;;;8.80;50.10;;;;;;5054040;28;19936;-77
2022/03/13 12:23:26;;;;;;;;;;;8.90;50.20;;;;;;5069213;28;20404;-74
2022/03/13 12:25:54;;;;;;;;;;;8.80;49.60;;;;;;5059074;28;19928;-75
2022/03/13 12:28:31;;;;;;;;;;;8.80;49.40;;;;;;5064599;28;19929;-76
2022/03/13 12:31:01;;;;;;;;;;;8.70;49.60;;;;;;5063218;28;19925;-74
2022/03/13 12:33:31;;;;;;;;;;;8.50;50.20;;;;;;5065401;28;20296;-74
2022/03/13 12:35:59;;;;;;;;;;;8.60;50.50;;;;;;5069074;28;20778;-77
2022/03/13 12:38:27;;;;;;;;;;;8.60;50.90;;;;;;5064943;28;19979;-77
2022/03/13 12:40:55;;;;;;;;;;;8.70;51.00;;;;;;5064083;28;19924;-77
2022/03/13 12:43:22;;;;;;;;;;;8.80;50.80;;;;;;5059660;28;19936;-76
2022/03/13 12:45:52;;;;;;;;;;;8.90;50.70;;;;;;5064443;28;19928;-77
2022/03/13 12:48:19;;;;;;;;;;;8.80;49.70;;;;;;5064393;28;19939;-77
2022/03/13 12:50:47;;;;;;;;;;;8.90;50.70;;;;;;5062010;28;20019;-77
2022/03/13 12:53:21;;;;;;;;;;;8.90;50.00;;;;;;5068289;28;20400;-77
2022/03/13 12:55:49;;;;;;;;;;;8.90;50.10;;;;;;5064081;28;19924;-77
2022/03/13 12:58:16;;;;;;;;;;;9.00;50.00;;;;;;5061652;28;19974;-74
2022/03/13 13:00:44;;;;;;;;;;;9.00;50.30;;;;;;5060620;28;20349;-77
2022/03/13 13:03:11;;;;;;;;;;;9.00;49.70;;;;;;5064710;28;19928;-78
2022/03/13 13:05:47;;;;;;;;;;;9.00;50.00;;;;;;5058405;28;19925;-76
2022/03/13 13:08:13;;;;;;;;;;;9.00;50.90;;;;;;5059066;28;19929;-77
2022/03/13 13:10:45;;;;;;;;;;;9.10;50.80;;;;;;5061870;28;19983;-77
2022/03/13 13:13:22;;;;;;;;;;;9.10;50.60;;;;;;5064244;28;19933;-78
2022/03/13 13:15:53;;;;;;;;;;;9.10;50.90;;;;;;5070463;28;19964;-78
2022/03/13 13:18:20;;;;;;;;;;;9.00;50.80;;;;;;5062630;28;19948;-78
2022/03/13 13:20:50;;;;;;;;;;;9.00;50.40;;;;;;5070211;28;20347;-78
2022/03/13 13:23:18;;;;;;;;;;;9.10;50.30;;;;;;5061229;28;19939;-75
2022/03/13 13:25:49;;;;;;;;;;;9.10;50.00;;;;;;5066918;28;19936;-77
2022/03/13 13:28:16;;;;;;;;;;;9.20;49.90;;;;;;5071311;28;19974;-78
2022/03/13 13:30:43;;;;;;;;;;;9.20;50.00;;;;;;5069868;28;19931;-77
2022/03/13 13:33:16;;;;;;;;;;;9.20;49.70;;;;;;5072149;28;19990;-78
2022/03/13 13:35:53;;;;;;;;;;;9.30;49.90;;;;;;5055085;28;19925;-75
2022/03/13 13:38:26;;;;;;;;;;;9.30;49.40;;;;;;5052028;28;19932;-75
2022/03/13 13:40:52;;;;;;;;;;;9.30;49.80;;;;;;5052860;28;19929;-74
2022/03/13 13:43:29;;;;;;;;;;;9.30;49.50;;;;;;5072622;28;20392;-76
2022/03/13 13:46:14;;;;;;;;;;;9.30;49.70;;;;;;5069555;28;19932;-75
2022/03/13 13:48:41;;;;;;;;;;;9.20;49.40;;;;;;5067111;28;19931;-75
2022/03/13 13:51:19;;;;;;;;;;;9.20;49.80;;;;;;5062264;28;19979;-79
2022/03/13 13:53:53;;;;;;;;;;;9.20;49.80;;;;;;5051944;28;19925;-79
2022/03/13 13:56:23;;;;;;;;;;;9.20;49.70;;;;;;5071057;28;20407;-76
2022/03/13 13:58:50;;;;;;;;;;;9.20;49.40;;;;;;5055440;28;19933;-75
2022/03/13 14:01:22;;;;;;;;;;;9.20;49.80;;;;;;5071870;28;19994;-75
2022/03/13 14:03:50;;;;;;;;;;;9.20;49.90;;;;;;5069066;28;20419;-77
2022/03/13 14:06:20;;;;;;;;;;;9.20;50.60;;;;;;5053590;28;19960;-77
2022/03/13 14:08:48;;;;;;;;;;;9.10;50.00;;;;;;5063584;28;19925;-75
2022/03/13 14:11:16;;;;;;;;;;;9.00;49.80;;;;;;5071456;28;20415;-78
2022/03/13 14:13:48;;;;;;;;;;;9.10;50.60;;;;;;5061381;28;19925;-77
2022/03/13 14:16:17;;;;;;;;;;;9.10;50.20;;;;;;5070147;28;19928;-78
2022/03/13 14:18:46;;;;;;;;;;;9.00;50.00;;;;;;5069861;28;19982;-74
2022/03/13 14:21:13;;;;;;;;;;;9.10;50.20;;;;;;5058720;28;19924;-78
2022/03/13 14:23:40;;;;;;;;;;;9.00;49.40;;;;;;5055383;28;19977;-78
2022/03/13 14:26:07;;;;;;;;;;;8.90;49.90;;;;;;5067011;28;19929;-76
2022/03/13 14:28:34;;;;;;;;;;;9.00;50.10;;;;;;5069685;28;20008;-74
2022/03/13 14:31:01;;;;;;;;;;;8.90;50.10;;;;;;5069244;28;19974;-77
2022/03/13 14:33:28;;;;;;;;;;;8.90;50.40;;;;;;5056948;28;20313;-78
2022/03/13 14:35:55;;;;;;;;;;;8.90;50.70;;;;;;5070232;28;19929;-79
2022/03/13 14:38:22;;;;;;;;;;;8.90;50.20;;;;;;5064116;28;20351;-79
2022/03/13 14:40:50;;;;;;;;;;;9.00;50.70;;;;;;5057544;28;19932;-78